Time;durP1;ratioP1;P1;durP2;ratioP2;P2;SDS_P1;SDS_P2;PMS_P1;PMS_P2;Temp;Humidity;BMP_temperature;BMP_pressure;BME280_temperature;BME280_humidity;BME280_pressure;Samples;Min_cycle;Max_cycle;Signal;HPM_P1;HPM_P2
2023/03/29 00:01:24;;;;;;;6.90;3.42;;;6.20;99.90;;;;;;5044954;28;20112;-65
2023/03/29 00:03:50;;;;;;;4.55;3.10;;;6.20;99.90;;;;;;5043180;28;20048;-65
2023/03/29 00:06:20;;;;;;;6.05;3.25;;;6.30;99.90;;;;;;5051423;28;20144;-65
2023/03/29 00:08:49;;;;;;;6.50;3.60;;;6.20;99.90;;;;;;5044588;28;20052;-65
2023/03/29 00:11:16;;;;;;;4.75;3.97;;;6.20;99.90;;;;;;5045254;28;20303;-65
2023/03/29 00:13:42;;;;;;;5.00;3.58;;;6.20;99.90;;;;;;5049979;28;20094;-65
2023/03/29 00:16:08;;;;;;;9.93;4.18;;;6.20;99.90;;;;;;5048938;28;20526;-65
2023/03/29 00:18:34;;;;;;;5.55;3.30;;;6.20;99.90;;;;;;5050549;28;20414;-65
2023/03/29 00:21:00;;;;;;;5.78;3.80;;;6.20;99.90;;;;;;5052640;28;20036;-65
2023/03/29 00:23:25;;;;;;;5.43;3.72;;;6.20;99.90;;;;;;5050987;28;20068;-65
2023/03/29 00:25:54;;;;;;;6.10;3.83;;;6.20;99.90;;;;;;5052479;28;20033;-65
2023/03/29 00:28:20;;;;;;;7.88;3.65;;;6.20;99.90;;;;;;5050835;28;20039;-65
2023/03/29 00:30:46;;;;;;;5.90;3.75;;;6.20;99.90;;;;;;5050005;28;20036;-65
2023/03/29 00:33:13;;;;;;;7.53;4.15;;;6.20;99.90;;;;;;5050228;28;20037;-65
2023/03/29 00:35:39;;;;;;;8.32;4.50;;;6.10;99.90;;;;;;5051749;28;20036;-65
2023/03/29 00:38:05;;;;;;;7.60;4.25;;;6.10;99.90;;;;;;5040129;28;20074;-65
2023/03/29 00:40:32;;;;;;;7.05;4.53;;;6.10;99.90;;;;;;5049267;28;20032;-65
2023/03/29 00:42:59;;;;;;;6.93;4.30;;;6.10;99.90;;;;;;5046935;28;20052;-65
2023/03/29 00:45:29;;;;;;;7.78;4.60;;;6.10;99.90;;;;;;5049852;28;20486;-65
2023/03/29 00:47:58;;;;;;;6.32;4.13;;;6.10;99.90;;;;;;5047735;28;20367;-65
2023/03/29 00:50:29;;;;;;;7.88;4.25;;;6.10;99.90;;;;;;5051140;28;20033;-65
2023/03/29 00:53:16;;;;;;;6.90;4.35;;;6.10;99.90;;;;;;5064237;22;20135;-63
2023/03/29 00:55:51;;;;;;;7.63;3.85;;;6.10;99.90;;;;;;5049839;28;20037;-63
2023/03/29 00:58:23;;;;;;;9.05;4.45;;;6.10;99.90;;;;;;5042202;28;20072;-63
2023/03/29 01:01:10;;;;;;;6.63;4.30;;;6.10;99.90;;;;;;5051719;28;20037;-63
2023/03/29 01:03:45;;;;;;;7.72;4.60;;;6.10;99.90;;;;;;5048633;28;20537;-63
2023/03/29 01:06:13;;;;;;;8.35;4.10;;;6.10;99.90;;;;;;5042860;28;20110;-63
2023/03/29 01:08:55;;;;;;;8.55;4.70;;;6.10;99.90;;;;;;5049503;28;20106;-63
2023/03/29 01:11:28;;;;;;;7.57;4.47;;;6.10;99.90;;;;;;5049934;28;20371;-63
2023/03/29 01:14:25;;;;;;;7.47;4.18;;;6.10;99.90;;;;;;5049956;28;20033;-63
2023/03/29 01:16:52;;;;;;;7.32;3.90;;;6.10;99.90;;;;;;5000644;28;20057;-63
2023/03/29 01:19:21;;;;;;;8.18;3.90;;;6.10;99.90;;;;;;5042305;28;20083;-63
2023/03/29 01:22:00;;;;;;;7.03;3.72;;;6.10;99.90;;;;;;5037643;28;20048;-63
2023/03/29 01:24:41;;;;;;;10.45;4.35;;;6.00;99.90;;;;;;5038099;28;20404;-63
2023/03/29 01:27:41;;;;;;;10.00;4.50;;;6.00;99.90;;;;;;5044075;28;20490;-63
2023/03/29 01:30:11;;;;;;;7.28;4.07;;;6.10;99.90;;;;;;5048861;28;20086;-63
2023/03/29 01:32:54;;;;;;;8.10;4.13;;;6.00;99.90;;;;;;5050472;28;20036;-63
2023/03/29 01:35:41;;;;;;;6.97;4.07;;;6.00;99.90;;;;;;5048418;28;20514;-63
2023/03/29 01:38:14;;;;;;;8.68;4.22;;;6.00;99.90;;;;;;5049500;28;20040;-63
2023/03/29 01:40:40;;;;;;;9.32;5.00;;;6.00;99.90;;;;;;5050007;28;20045;-63
2023/03/29 01:43:11;;;;;;;8.93;5.45;;;6.00;99.90;;;;;;5051465;28;20033;-63
2023/03/29 01:45:46;;;;;;;7.68;5.53;;;6.00;99.90;;;;;;5049672;28;20060;-63
2023/03/29 01:48:28;;;;;;;11.43;5.95;;;6.00;99.90;;;;;;5047042;28;20055;-63
2023/03/29 01:51:03;;;;;;;11.10;5.65;;;6.00;99.90;;;;;;5046635;28;20792;-63
2023/03/29 01:53:41;;;;;;;9.40;6.05;;;6.00;99.90;;;;;;5036616;28;20045;-63
2023/03/29 01:56:12;;;;;;;11.60;6.45;;;6.00;99.90;;;;;;5041889;28;20037;-63
2023/03/29 01:58:43;;;;;;;11.18;6.13;;;6.00;99.90;;;;;;5047201;28;20126;-63
2023/03/29 02:01:12;;;;;;;11.20;6.20;;;6.00;99.90;;;;;;5047434;28;20375;-63
2023/03/29 02:03:42;;;;;;;9.27;6.40;;;6.00;99.90;;;;;;5040359;28;20037;-63
2023/03/29 02:06:15;;;;;;;10.30;6.03;;;6.00;99.90;;;;;;5046389;28;20511;-63
2023/03/29 02:08:41;;;;;;;10.85;6.60;;;6.00;99.90;;;;;;5049940;28;20041;-63
2023/03/29 02:11:07;;;;;;;13.80;7.40;;;6.00;99.90;;;;;;5050841;28;20053;-63
2023/03/29 02:13:34;;;;;;;10.02;7.28;;;6.00;99.90;;;;;;5049928;28;20563;-63
2023/03/29 02:16:01;;;;;;;16.10;7.80;;;6.00;99.90;;;;;;5050245;28;20036;-63
2023/03/29 02:18:28;;;;;;;12.43;7.68;;;6.00;99.90;;;;;;5049067;28;20095;-63
2023/03/29 02:20:57;;;;;;;12.30;7.47;;;6.00;99.90;;;;;;5039720;28;20045;-63
2023/03/29 02:23:33;;;;;;;12.90;8.00;;;6.00;99.90;;;;;;5048177;28;20033;-63
2023/03/29 02:25:59;;;;;;;13.20;8.05;;;6.00;99.90;;;;;;5044632;28;20048;-63
2023/03/29 02:28:26;;;;;;;11.60;7.85;;;6.00;99.90;;;;;;5045576;28;20461;-63
2023/03/29 02:31:07;;;;;;;16.95;9.00;;;6.00;99.90;;;;;;5050758;28;20041;-63
2023/03/29 02:33:37;;;;;;;17.05;8.90;;;6.00;99.90;;;;;;5052282;28;20037;-63
2023/03/29 02:36:27;;;;;;;18.80;9.68;;;6.00;99.90;;;;;;5049430;28;20441;-63
2023/03/29 02:38:54;;;;;;;15.77;9.43;;;6.00;99.90;;;;;;5051887;28;20475;-63
2023/03/29 02:41:22;;;;;;;16.23;9.45;;;6.00;99.90;;;;;;5047286;28;20529;-63
2023/03/29 02:43:49;;;;;;;13.70;8.80;;;6.00;99.90;;;;;;5052019;28;20128;-63
2023/03/29 02:46:17;;;;;;;16.10;9.55;;;6.00;99.90;;;;;;5054125;28;20033;-63
2023/03/29 02:48:45;;;;;;;17.20;9.73;;;6.00;99.90;;;;;;5053148;28;20151;-63
2023/03/29 02:51:25;;;;;;;17.17;9.90;;;6.00;99.90;;;;;;5051870;28;20041;-63
2023/03/29 02:54:07;;;;;;;18.45;10.93;;;6.00;99.90;;;;;;5042406;28;20053;-62
2023/03/29 02:56:47;;;;;;;17.85;10.63;;;6.00;99.90;;;;;;5042705;28;20686;-62
2023/03/29 02:59:13;;;;;;;16.63;10.25;;;6.00;99.90;;;;;;5045852;28;20047;-63
2023/03/29 03:01:41;;;;;;;16.27;10.38;;;6.00;99.90;;;;;;5051163;28;20040;-63
2023/03/29 03:04:08;;;;;;;17.20;10.43;;;6.00;99.90;;;;;;5051172;28;20055;-62
2023/03/29 03:06:35;;;;;;;18.75;10.35;;;6.10;99.90;;;;;;5054023;28;20029;-63
2023/03/29 03:09:01;;;;;;;19.30;10.20;;;6.00;99.90;;;;;;5034705;28;20041;-63
2023/03/29 03:11:26;;;;;;;16.27;9.85;;;6.10;99.90;;;;;;5050171;28;20119;-62
2023/03/29 03:13:52;;;;;;;19.42;10.40;;;6.10;99.90;;;;;;5046405;28;20272;-62
2023/03/29 03:16:18;;;;;;;19.67;10.40;;;6.10;99.90;;;;;;5053318;28;20086;-62
2023/03/29 03:18:44;;;;;;;15.65;10.27;;;6.10;99.90;;;;;;5044320;28;20044;-62
2023/03/29 03:21:10;;;;;;;15.32;10.18;;;6.10;99.90;;;;;;5045081;28;20029;-63
2023/03/29 03:23:36;;;;;;;18.40;10.23;;;6.10;99.90;;;;;;5050038;28;20052;-63
2023/03/29 03:26:02;;;;;;;17.73;9.55;;;6.10;99.90;;;;;;5052481;28;20076;-62
2023/03/29 03:28:27;;;;;;;18.48;10.13;;;6.10;99.90;;;;;;5051582;28;20063;-62
2023/03/29 03:30:53;;;;;;;16.63;9.73;;;6.10;99.90;;;;;;5045043;28;20052;-63
2023/03/29 03:33:19;;;;;;;19.48;10.65;;;6.10;99.90;;;;;;5051620;28;20398;-62
2023/03/29 03:35:48;;;;;;;16.55;10.38;;;6.10;99.90;;;;;;5041048;28;20121;-63
2023/03/29 03:38:14;;;;;;;18.20;10.38;;;6.10;99.90;;;;;;5045673;28;20033;-62
2023/03/29 03:40:39;;;;;;;17.85;10.32;;;6.10;99.90;;;;;;5041736;28;20099;-63
2023/03/29 03:43:05;;;;;;;16.75;9.48;;;6.10;99.90;;;;;;5049942;28;20546;-63
2023/03/29 03:45:31;;;;;;;17.05;10.65;;;6.10;99.90;;;;;;5051525;28;20112;-63
2023/03/29 03:47:57;;;;;;;18.13;10.50;;;6.20;99.90;;;;;;5050942;28;20170;-62
2023/03/29 03:50:23;;;;;;;20.80;10.48;;;6.10;99.90;;;;;;5049901;28;20032;-63
2023/03/29 03:52:48;;;;;;;16.30;9.73;;;6.20;99.90;;;;;;5048235;28;20032;-63
2023/03/29 03:55:15;;;;;;;18.60;9.82;;;6.20;99.90;;;;;;5046433;28;20041;-63
2023/03/29 03:57:40;;;;;;;17.55;9.68;;;6.20;99.90;;;;;;5041968;28;20033;-62
2023/03/29 04:00:17;;;;;;;20.15;10.32;;;6.20;99.90;;;;;;5050647;28;20080;-63
2023/03/29 04:02:43;;;;;;;15.93;10.07;;;6.20;99.90;;;;;;5051951;28;20494;-62
2023/03/29 04:05:08;;;;;;;18.13;10.57;;;6.20;99.90;;;;;;5047459;28;20044;-63
2023/03/29 04:07:34;;;;;;;17.10;9.85;;;6.20;99.90;;;;;;5037530;28;20406;-63
2023/03/29 04:10:00;;;;;;;20.75;11.40;;;6.20;99.90;;;;;;5050522;28;20049;-62
2023/03/29 04:12:25;;;;;;;17.83;11.32;;;6.20;99.90;;;;;;5050122;28;20039;-63
2023/03/29 04:14:51;;;;;;;17.35;9.90;;;6.20;99.90;;;;;;5037335;28;20067;-62
2023/03/29 04:17:16;;;;;;;13.30;9.05;;;6.20;99.90;;;;;;5052478;28;20418;-63
2023/03/29 04:19:42;;;;;;;15.55;9.85;;;6.20;99.90;;;;;;5051916;28;20098;-62
2023/03/29 04:22:08;;;;;;;16.58;9.35;;;6.20;99.90;;;;;;5046683;28;20467;-62
2023/03/29 04:24:33;;;;;;;15.90;9.40;;;6.20;99.90;;;;;;5047442;28;20743;-63
2023/03/29 04:26:59;;;;;;;17.92;9.60;;;6.20;99.90;;;;;;5048983;28;20037;-63
2023/03/29 04:29:24;;;;;;;13.65;9.88;;;6.20;99.90;;;;;;5043932;28;20051;-63
2023/03/29 04:31:50;;;;;;;16.38;9.30;;;6.20;99.90;;;;;;5041667;28;20048;-63
2023/03/29 04:34:16;;;;;;;19.25;10.02;;;6.10;99.90;;;;;;5049772;28;20033;-63
2023/03/29 04:36:42;;;;;;;16.40;9.95;;;6.20;99.90;;;;;;5049111;28;20041;-63
2023/03/29 04:39:08;;;;;;;20.42;10.30;;;6.20;99.90;;;;;;5050384;28;20037;-63
2023/03/29 04:41:33;;;;;;;14.35;10.27;;;6.20;99.90;;;;;;5043942;28;20029;-63
2023/03/29 04:44:01;;;;;;;15.75;9.20;;;6.10;99.90;;;;;;5051001;28;20491;-63
2023/03/29 04:46:27;;;;;;;15.88;10.13;;;6.20;99.90;;;;;;5050457;28;20032;-62
2023/03/29 04:48:52;;;;;;;19.63;10.88;;;6.20;99.90;;;;;;5044518;28;20044;-63
2023/03/29 04:51:20;;;;;;;19.65;10.60;;;6.20;99.90;;;;;;5031516;28;20639;-63
2023/03/29 04:53:47;;;;;;;16.05;9.68;;;6.20;99.90;;;;;;5048320;28;20076;-62
2023/03/29 04:56:13;;;;;;;17.90;10.98;;;6.20;99.90;;;;;;5050666;28;20037;-63
2023/03/29 04:58:39;;;;;;;16.13;10.43;;;6.20;99.90;;;;;;5034815;28;20044;-63
2023/03/29 05:01:04;;;;;;;16.30;8.98;;;6.20;99.90;;;;;;5046626;28;20039;-63
2023/03/29 05:03:30;;;;;;;16.95;10.73;;;6.20;99.90;;;;;;5050144;28;20037;-62
2023/03/29 05:06:05;;;;;;;17.23;10.02;;;6.20;99.90;;;;;;5034935;28;20041;-63
2023/03/29 05:08:37;;;;;;;17.15;10.10;;;6.20;99.90;;;;;;5049905;28;20040;-63
2023/03/29 05:11:10;;;;;;;17.88;10.90;;;6.20;99.90;;;;;;5051193;28;20533;-63
2023/03/29 05:13:36;;;;;;;16.35;9.90;;;6.10;99.90;;;;;;5050686;28;20490;-62
2023/03/29 05:16:03;;;;;;;17.65;9.95;;;6.10;99.90;;;;;;5042042;28;20412;-62
2023/03/29 05:18:30;;;;;;;16.52;11.25;;;6.10;99.90;;;;;;5042305;28;20033;-63
2023/03/29 05:20:57;;;;;;;17.45;10.57;;;6.10;99.90;;;;;;5046180;28;20047;-63
2023/03/29 05:23:23;;;;;;;19.00;11.55;;;6.10;99.90;;;;;;5046388;28;20025;-63
2023/03/29 05:25:51;;;;;;;17.17;11.68;;;6.10;99.90;;;;;;5042728;28;20555;-63
2023/03/29 05:28:18;;;;;;;17.65;10.98;;;6.10;99.90;;;;;;5051160;28;20037;-63
2023/03/29 05:30:43;;;;;;;16.23;10.43;;;6.10;99.90;;;;;;5042070;28;20125;-63
2023/03/29 05:33:09;;;;;;;21.60;11.70;;;6.10;99.90;;;;;;5045249;28;20112;-63
2023/03/29 05:35:35;;;;;;;19.80;11.18;;;6.00;99.90;;;;;;5050627;28;20098;-63
2023/03/29 05:38:03;;;;;;;22.58;12.02;;;6.00;99.90;;;;;;5050810;28;20037;-63
2023/03/29 05:40:30;;;;;;;16.77;10.95;;;6.00;99.90;;;;;;5048551;28;20048;-63
2023/03/29 05:42:56;;;;;;;21.45;10.73;;;6.00;99.90;;;;;;5041340;28;20053;-63
2023/03/29 05:45:23;;;;;;;15.45;9.98;;;6.00;99.90;;;;;;5044461;28;20047;-63
2023/03/29 05:47:49;;;;;;;21.13;11.32;;;6.00;99.90;;;;;;5049745;28;20048;-63
2023/03/29 05:50:14;;;;;;;17.50;10.40;;;5.90;99.90;;;;;;5041371;28;20045;-62
2023/03/29 05:52:40;;;;;;;21.13;11.50;;;6.00;99.90;;;;;;5034096;28;20153;-63
2023/03/29 05:55:06;;;;;;;17.65;11.73;;;5.90;99.90;;;;;;5049797;28;20048;-63
2023/03/29 05:57:36;;;;;;;18.13;11.38;;;6.00;99.90;;;;;;5042557;28;20096;-63
2023/03/29 06:00:22;;;;;;;20.92;10.93;;;5.90;99.90;;;;;;5032452;28;20540;-63
2023/03/29 06:02:49;;;;;;;21.27;11.15;;;6.00;99.90;;;;;;5047422;28;20090;-63
2023/03/29 06:05:15;;;;;;;19.15;11.40;;;6.00;99.90;;;;;;5042075;28;20041;-63
2023/03/29 06:07:41;;;;;;;23.15;11.73;;;6.00;99.90;;;;;;5048577;28;20510;-62
2023/03/29 06:10:08;;;;;;;18.42;10.60;;;6.00;99.90;;;;;;5035094;28;20092;-63
2023/03/29 06:12:34;;;;;;;20.65;11.93;;;6.00;99.90;;;;;;5043983;28;20029;-63
2023/03/29 06:15:03;;;;;;;18.08;11.70;;;6.00;99.90;;;;;;5052966;28;20120;-63
2023/03/29 06:17:30;;;;;;;22.00;11.10;;;6.00;99.90;;;;;;5053823;28;20437;-63
2023/03/29 06:19:56;;;;;;;17.77;10.40;;;6.00;99.90;;;;;;5042982;28;20041;-62
2023/03/29 06:22:22;;;;;;;17.52;11.05;;;6.10;99.90;;;;;;5053479;28;20049;-62
2023/03/29 06:24:48;;;;;;;18.35;10.70;;;6.10;99.90;;;;;;5052925;28;20564;-63
2023/03/29 06:27:13;;;;;;;20.25;11.18;;;6.10;99.90;;;;;;5051212;28;20098;-62
2023/03/29 06:29:39;;;;;;;19.45;11.88;;;6.10;99.90;;;;;;5046973;28;20099;-63
2023/03/29 06:32:04;;;;;;;20.00;10.60;;;6.10;99.90;;;;;;5050491;28;20037;-63
2023/03/29 06:34:30;;;;;;;15.63;10.10;;;6.10;99.90;;;;;;5048133;28;20033;-62
2023/03/29 06:36:56;;;;;;;19.55;9.68;;;6.20;99.90;;;;;;5043568;28;20126;-62
2023/03/29 06:39:22;;;;;;;19.63;11.18;;;6.20;99.90;;;;;;5044977;28;20120;-63
2023/03/29 06:41:47;;;;;;;15.70;10.10;;;6.20;99.90;;;;;;5044065;28;20029;-63
2023/03/29 06:44:14;;;;;;;18.13;10.43;;;6.20;99.90;;;;;;5045509;28;20509;-63
2023/03/29 06:46:39;;;;;;;18.15;10.73;;;6.20;99.90;;;;;;5052684;28;20155;-63
2023/03/29 06:49:05;;;;;;;15.73;10.00;;;6.20;99.90;;;;;;5052988;28;20079;-63
2023/03/29 06:51:31;;;;;;;14.85;9.30;;;6.20;99.90;;;;;;5051442;28;20032;-63
2023/03/29 06:53:56;;;;;;;17.95;10.27;;;6.30;99.90;;;;;;5032148;22;20049;-64
2023/03/29 06:56:22;;;;;;;20.38;11.18;;;6.30;99.90;;;;;;5005247;28;20030;-64
2023/03/29 06:58:48;;;;;;;16.55;9.63;;;6.40;99.90;;;;;;5006685;28;20104;-64
2023/03/29 07:01:13;;;;;;;18.05;10.93;;;6.40;99.90;;;;;;5011227;28;20038;-64
2023/03/29 07:03:40;;;;;;;17.25;9.48;;;6.40;99.90;;;;;;5008017;28;20510;-64
2023/03/29 07:06:08;;;;;;;16.50;9.95;;;6.50;99.90;;;;;;5011481;28;20430;-65
2023/03/29 07:08:46;;;;;;;17.35;9.20;;;6.50;99.90;;;;;;5009813;28;20084;-64
2023/03/29 07:11:13;;;;;;;15.63;9.55;;;6.60;99.90;;;;;;5003417;28;20447;-64
2023/03/29 07:13:41;;;;;;;16.63;8.75;;;6.50;99.90;;;;;;4997832;28;20274;-64
2023/03/29 07:16:07;;;;;;;16.75;9.70;;;6.60;99.90;;;;;;5012275;28;20039;-64
2023/03/29 07:18:33;;;;;;;16.08;9.95;;;6.60;99.90;;;;;;5010972;28;20045;-64
2023/03/29 07:20:58;;;;;;;17.35;10.07;;;6.60;99.90;;;;;;5001745;28;20034;-64
2023/03/29 07:23:24;;;;;;;13.48;8.98;;;6.60;99.90;;;;;;5008641;28;20062;-64
2023/03/29 07:25:50;;;;;;;15.57;9.95;;;6.70;99.90;;;;;;5013111;28;20049;-64
2023/03/29 07:28:15;;;;;;;15.93;8.80;;;6.70;99.90;;;;;;5005517;28;20034;-64
2023/03/29 07:30:41;;;;;;;15.23;9.38;;;6.70;99.90;;;;;;5002700;28;20480;-64
2023/03/29 07:33:08;;;;;;;18.83;9.30;;;6.70;99.90;;;;;;5010594;28;20491;-64
2023/03/29 07:35:33;;;;;;;16.25;9.43;;;6.70;99.90;;;;;;5005283;28;20092;-64
2023/03/29 07:37:59;;;;;;;16.55;9.07;;;6.70;99.90;;;;;;5011170;28;20041;-64
2023/03/29 07:40:24;;;;;;;14.45;8.48;;;6.70;99.90;;;;;;5012340;28;20034;-64
2023/03/29 07:42:55;;;;;;;16.90;9.63;;;6.80;99.90;;;;;;5003120;28;20066;-64
2023/03/29 07:45:22;;;;;;;12.52;8.50;;;6.80;99.90;;;;;;5012524;28;20088;-64
2023/03/29 07:47:52;;;;;;;17.33;9.52;;;6.80;99.90;;;;;;5013392;28;20377;-64
2023/03/29 07:50:17;;;;;;;13.63;8.55;;;6.80;99.90;;;;;;5003919;28;20062;-64
2023/03/29 07:52:44;;;;;;;13.07;8.25;;;6.80;99.90;;;;;;5000832;28;20163;-64
2023/03/29 07:55:12;;;;;;;15.43;8.80;;;6.90;99.90;;;;;;5013496;28;20057;-64
2023/03/29 07:57:38;;;;;;;15.82;8.32;;;6.90;99.90;;;;;;5010312;28;20442;-64
2023/03/29 08:00:14;;;;;;;13.07;8.52;;;6.90;99.90;;;;;;5002138;28;20042;-64
2023/03/29 08:02:45;;;;;;;12.60;7.80;;;7.00;99.90;;;;;;5004338;28;20033;-64
2023/03/29 08:05:13;;;;;;;14.18;8.50;;;7.00;99.90;;;;;;5012497;28;20488;-64
2023/03/29 08:07:40;;;;;;;13.93;7.88;;;7.00;99.90;;;;;;5009106;28;20030;-64
2023/03/29 08:10:12;;;;;;;15.18;8.70;;;7.10;99.90;;;;;;4996912;28;20038;-64
2023/03/29 08:12:38;;;;;;;13.00;8.40;;;7.10;99.90;;;;;;5004322;28;20053;-64
2023/03/29 08:15:05;;;;;;;14.77;7.93;;;7.10;99.90;;;;;;5013651;28;20404;-64
2023/03/29 08:17:31;;;;;;;14.70;8.35;;;7.10;99.90;;;;;;5010234;28;20038;-64
2023/03/29 08:19:57;;;;;;;15.05;8.30;;;7.20;99.90;;;;;;5004998;28;20046;-64
2023/03/29 08:22:22;;;;;;;15.48;7.80;;;7.20;99.90;;;;;;5004055;28;20036;-64
2023/03/29 08:24:48;;;;;;;13.27;8.63;;;7.30;99.90;;;;;;5004741;28;20116;-64
2023/03/29 08:27:14;;;;;;;13.05;7.60;;;7.30;99.90;;;;;;5010462;28;20774;-64
2023/03/29 08:29:40;;;;;;;15.15;8.48;;;7.30;99.90;;;;;;5011316;28;20085;-64
2023/03/29 08:32:05;;;;;;;15.80;8.70;;;7.40;99.90;;;;;;4992886;28;20074;-64
2023/03/29 08:34:31;;;;;;;16.05;7.80;;;7.40;99.90;;;;;;4993140;28;20097;-64
2023/03/29 08:36:58;;;;;;;12.70;7.43;;;7.40;99.90;;;;;;5009546;28;20041;-64
2023/03/29 08:39:23;;;;;;;12.82;7.45;;;7.50;99.90;;;;;;5012481;28;20076;-64
2023/03/29 08:42:17;;;;;;;13.90;7.60;;;7.60;99.90;;;;;;5009857;28;20168;-64
2023/03/29 08:44:49;;;;;;;17.70;7.78;;;7.60;99.90;;;;;;5011537;28;20045;-64
2023/03/29 08:47:30;;;;;;;15.82;7.85;;;7.70;99.90;;;;;;5012916;28;20042;-64
2023/03/29 08:49:56;;;;;;;13.37;7.50;;;7.80;99.90;;;;;;5010770;28;20044;-64
2023/03/29 08:52:25;;;;;;;11.57;7.43;;;7.90;99.90;;;;;;5006159;28;20135;-64
2023/03/29 08:54:54;;;;;;;12.98;8.35;;;8.00;99.90;;;;;;5006457;28;20041;-64
2023/03/29 08:57:33;;;;;;;13.10;7.63;;;8.00;99.90;;;;;;5010584;28;20049;-64
2023/03/29 09:00:04;;;;;;;10.88;7.03;;;8.10;99.90;;;;;;5009284;28;20061;-64
2023/03/29 09:02:33;;;;;;;14.50;7.25;;;8.20;99.90;;;;;;5008380;28;20054;-64
2023/03/29 09:05:17;;;;;;;14.80;7.57;;;8.30;99.90;;;;;;5000565;28;20042;-64
2023/03/29 09:07:42;;;;;;;11.02;7.30;;;8.40;99.90;;;;;;4990846;28;20089;-64
2023/03/29 09:10:14;;;;;;;9.82;6.70;;;8.40;99.90;;;;;;5002011;28;20093;-64
2023/03/29 09:12:58;;;;;;;10.45;7.20;;;8.50;99.90;;;;;;5005280;28;20120;-64
2023/03/29 09:15:35;;;;;;;11.68;6.88;;;8.50;99.90;;;;;;5000176;28;20046;-64
2023/03/29 09:18:10;;;;;;;11.93;7.28;;;8.60;99.90;;;;;;5005848;28;20535;-64
2023/03/29 09:20:46;;;;;;;13.55;7.70;;;8.70;99.90;;;;;;5003285;28;20036;-64
2023/03/29 09:23:39;;;;;;;11.63;6.95;;;8.80;99.90;;;;;;5010180;28;20084;-64
2023/03/29 09:26:23;;;;;;;11.32;7.13;;;8.80;99.90;;;;;;5004395;28;20038;-63
2023/03/29 09:29:16;;;;;;;10.35;7.28;;;8.80;99.90;;;;;;5005845;28;20290;-64
2023/03/29 09:31:45;;;;;;;11.15;7.22;;;8.90;99.90;;;;;;5009350;28;20042;-64
2023/03/29 09:34:18;;;;;;;13.50;6.78;;;8.90;99.90;;;;;;5011626;28;20044;-64
2023/03/29 09:36:51;;;;;;;9.90;6.72;;;8.90;99.90;;;;;;5011540;28;20041;-64
2023/03/29 09:39:19;;;;;;;10.65;6.80;;;8.90;99.90;;;;;;5008957;28;20121;-64
2023/03/29 09:41:49;;;;;;;12.43;7.05;;;9.00;99.90;;;;;;5013212;28;20045;-64
2023/03/29 09:44:20;;;;;;;9.77;7.38;;;9.00;99.90;;;;;;5012988;28;20045;-64
2023/03/29 09:46:52;;;;;;;13.18;6.70;;;9.10;99.90;;;;;;5016187;28;20131;-64
2023/03/29 09:49:23;;;;;;;11.48;7.20;;;9.10;99.90;;;;;;5006862;28;20038;-64
2023/03/29 09:51:49;;;;;;;14.88;7.95;;;9.20;99.90;;;;;;5016696;28;20042;-64
2023/03/29 09:54:15;;;;;;;15.43;7.28;;;9.20;99.90;;;;;;5015370;28;20052;-64
2023/03/29 09:56:41;;;;;;;13.05;7.50;;;9.30;99.90;;;;;;5012903;28;20500;-64
2023/03/29 09:59:11;;;;;;;13.63;7.03;;;9.40;99.90;;;;;;5012739;28;20120;-64
2023/03/29 10:01:44;;;;;;;12.65;7.18;;;9.40;99.90;;;;;;5002774;28;20039;-64
2023/03/29 10:04:10;;;;;;;12.70;7.25;;;9.40;99.90;;;;;;5013587;28;20033;-64
2023/03/29 10:06:41;;;;;;;11.98;6.68;;;9.50;99.90;;;;;;5015650;28;20056;-64
2023/03/29 10:09:15;;;;;;;13.38;7.13;;;9.50;99.90;;;;;;5006984;28;20119;-64
2023/03/29 10:11:46;;;;;;;13.95;8.73;;;9.50;99.90;;;;;;5015725;28;20555;-64
2023/03/29 10:14:17;;;;;;;12.27;7.97;;;9.50;99.90;;;;;;5008937;28;20056;-64
2023/03/29 10:16:44;;;;;;;13.55;8.27;;;9.60;99.90;;;;;;5014345;28;20042;-64
2023/03/29 10:19:22;;;;;;;12.32;7.80;;;9.60;99.90;;;;;;5015389;28;20072;-64
2023/03/29 10:21:50;;;;;;;16.60;8.73;;;9.70;99.90;;;;;;5015477;28;20040;-64
2023/03/29 10:24:24;;;;;;;15.70;9.20;;;9.70;99.90;;;;;;5009560;28;20360;-64
2023/03/29 10:26:58;;;;;;;16.08;9.55;;;9.80;99.90;;;;;;5014644;28;20053;-64
2023/03/29 10:29:26;;;;;;;19.23;9.25;;;9.80;99.90;;;;;;5017827;28;20487;-64
2023/03/29 10:31:52;;;;;;;15.63;9.15;;;9.80;99.90;;;;;;5015128;28;20470;-64
2023/03/29 10:34:24;;;;;;;14.52;8.73;;;9.90;99.90;;;;;;5015737;28;20427;-64
2023/03/29 10:36:57;;;;;;;15.57;9.27;;;9.90;99.90;;;;;;5015558;28;20048;-64
2023/03/29 10:39:26;;;;;;;14.38;8.35;;;9.90;99.90;;;;;;5012576;28;20038;-64
2023/03/29 10:41:52;;;;;;;18.65;9.07;;;9.90;99.90;;;;;;5006449;28;20516;-64
2023/03/29 10:44:35;;;;;;;16.70;9.32;;;10.00;99.90;;;;;;5010620;28;20038;-64
2023/03/29 10:47:19;;;;;;;14.25;9.35;;;10.00;99.90;;;;;;5009375;28;20107;-64
2023/03/29 10:49:52;;;;;;;16.42;9.15;;;10.10;99.90;;;;;;5015375;28;20077;-64
2023/03/29 10:52:18;;;;;;;15.00;9.20;;;10.20;99.90;;;;;;5002975;28;20048;-64
2023/03/29 10:54:46;;;;;;;12.93;8.77;;;10.30;99.90;;;;;;5013409;28;20403;-64
2023/03/29 10:57:22;;;;;;;13.63;9.57;;;10.40;99.90;;;;;;5008764;28;20048;-64
2023/03/29 11:00:06;;;;;;;15.23;9.52;;;10.50;99.90;;;;;;5012312;28;20088;-64
2023/03/29 11:03:22;;;;;;;14.38;8.77;;;10.60;99.90;;;;;;5009321;28;20391;-64
2023/03/29 11:06:15;;;;;;;13.65;8.57;;;10.70;99.90;;;;;;4959288;28;20049;-64
2023/03/29 11:09:00;;;;;;;13.68;8.18;;;10.80;99.90;;;;;;5009847;28;20384;-64
2023/03/29 11:12:01;;;;;;;15.05;8.43;;;10.90;99.90;;;;;;5011942;28;20034;-65
2023/03/29 11:14:49;;;;;;;14.68;8.43;;;10.90;99.90;;;;;;5011975;28;20045;-64
2023/03/29 11:17:22;;;;;;;12.57;7.90;;;10.90;99.90;;;;;;5013567;28;20038;-64
2023/03/29 11:20:23;;;;;;;13.27;8.27;;;11.00;99.90;;;;;;5008739;28;20042;-64
2023/03/29 11:23:00;;;;;;;13.00;8.73;;;11.10;99.90;;;;;;4999377;28;20073;-64
2023/03/29 11:25:49;;;;;;;13.60;8.13;;;11.20;99.90;;;;;;5003323;28;20049;-64
2023/03/29 11:29:04;;;;;;;13.93;8.00;;;11.20;99.90;;;;;;5010945;28;20034;-64
2023/03/29 11:31:58;;;;;;;14.38;8.95;;;11.30;99.90;;;;;;5005253;28;20423;-64
2023/03/29 11:34:53;;;;;;;10.93;7.50;;;11.40;99.90;;;;;;5012396;28;20120;-64
2023/03/29 11:37:37;;;;;;;11.13;7.72;;;11.50;99.90;;;;;;5010856;28;20038;-64
2023/03/29 11:40:34;;;;;;;11.68;7.85;;;11.40;99.90;;;;;;5013224;28;20368;-64
2023/03/29 11:43:04;;;;;;;15.73;8.98;;;11.60;99.90;;;;;;5012925;28;20049;-64
2023/03/29 11:45:47;;;;;;;9.80;6.85;;;11.70;99.90;;;;;;5012304;28;20038;-64
2023/03/29 11:48:21;;;;;;;9.52;7.32;;;11.90;99.90;;;;;;5004997;28;20038;-64
2023/03/29 11:50:55;;;;;;;11.07;7.43;;;11.90;99.90;;;;;;5003530;28;20045;-64
2023/03/29 11:53:33;;;;;;;14.43;7.90;;;11.90;99.90;;;;;;5004419;28;20042;-64
2023/03/29 11:59:10;;;;;;;12.93;8.60;;;11.90;99.90;;;;;;4996016;28;20048;-64
2023/03/29 12:01:42;;;;;;;10.40;7.95;;;12.00;99.90;;;;;;5000950;28;20049;-64
2023/03/29 12:04:23;;;;;;;14.02;8.45;;;12.10;99.90;;;;;;4998925;28;20077;-64
2023/03/29 12:07:21;;;;;;;16.75;8.20;;;12.10;99.90;;;;;;5009456;28;20046;-64
2023/03/29 12:09:53;;;;;;;12.63;7.68;;;12.20;99.90;;;;;;5002871;28;20477;-64
2023/03/29 12:12:27;;;;;;;;;;;12.20;99.90;;;;;;5005193;28;20120;-64
2023/03/29 12:15:10;;;;;;;10.00;7.18;;;12.20;99.90;;;;;;5000758;28;20024;-64
2023/03/29 12:18:03;;;;;;;10.95;7.72;;;12.30;99.90;;;;;;4995643;28;20042;-64
2023/03/29 12:20:34;;;;;;;14.38;7.53;;;12.40;99.90;;;;;;5007968;28;20038;-64
2023/03/29 12:23:00;;;;;;;;;;;12.40;99.90;;;;;;5012334;28;20117;-64
2023/03/29 12:25:38;;;;;;;12.35;7.80;;;12.40;99.90;;;;;;5013138;28;20012;-64
2023/03/29 12:28:32;;;;;;;12.40;7.05;;;12.40;99.90;;;;;;5011726;28;20033;-64
2023/03/29 12:31:30;;;;;;;11.60;7.40;;;12.40;99.90;;;;;;5007847;28;20046;-64
2023/03/29 12:34:18;;;;;;;10.95;8.52;;;12.40;99.90;;;;;;5009189;28;20065;-64
2023/03/29 12:36:53;;;;;;;12.18;7.85;;;12.50;99.90;;;;;;4993166;28;20438;-64
2023/03/29 12:39:20;;;;;;;12.45;8.20;;;12.50;99.90;;;;;;4999152;28;20092;-64
2023/03/29 12:41:52;;;;;;;13.20;8.30;;;12.60;99.90;;;;;;5011506;28;20030;-64
2023/03/29 12:44:22;;;;;;;15.05;8.60;;;12.60;99.90;;;;;;5012063;28;20113;-64
2023/03/29 12:46:53;;;;;;;11.25;7.97;;;12.50;99.90;;;;;;4995029;28;20129;-64
2023/03/29 12:49:32;;;;;;;12.02;7.82;;;12.50;99.90;;;;;;5007670;28;20069;-64
2023/03/29 12:52:00;;;;;;;14.75;9.05;;;12.60;99.90;;;;;;5001542;28;20114;-64
2023/03/29 12:54:31;;;;;;;13.93;8.90;;;12.70;99.90;;;;;;5052830;22;20045;-61
2023/03/29 12:57:25;;;;;;;16.38;8.88;;;12.60;99.90;;;;;;5050795;28;20068;-62
2023/03/29 12:59:51;;;;;;;12.63;8.65;;;12.70;99.90;;;;;;5051005;28;20465;-61
2023/03/29 13:02:16;;;;;;;12.38;7.88;;;12.80;99.90;;;;;;5051486;28;20036;-61
2023/03/29 13:04:45;;;;;;;13.25;8.07;;;12.90;99.90;;;;;;5051991;28;20499;-61
2023/03/29 13:07:43;;;;;;;12.38;8.13;;;13.10;99.90;;;;;;5050594;28;20055;-61
2023/03/29 13:10:28;;;;;;;13.70;8.02;;;13.10;99.90;;;;;;5043144;28;20132;-61